Tan Son Nhat International Airport
VVTS : now visible

Airfield :











YOU CAN JOIN US ON...

 
LOGIN :

Register | Disclaimer

   EN    FR    IT 

 









Legend :    VFR   Marginal VFR   IFR   Intensive IFR   Very Intensive IFR
Visi :
Ceiling :
>= 8 km
>= 3000ft
5 to 8 km
1000 to 3000 ft
1500m to 5 km
500 to 1000 ft
800 to 1500m
200 to 500 ft
< 800m
< 200 ft
Symbols :   Thunderstorms  Fog  Heavy snow  Heavy precipitations  Wind > 20 kt






- Airport Elevation : 33 ft
- IATA code : SGN


VVTS - Tan Son Nhat International

CURRENT METAR :
  • 271200Z 28010KT 8000 SCT015 FEW017CB BKN050 26/24 Q1005 NOSIG RMK CB/SE

EXPIRED METARs :
  • 271130Z 29008KT 8000 -RA SCT015 FEW017CB BKN050 26/24 Q1005 NOSIG RMK CB/SE/SW
  • 271100Z VRB02KT 8000 -RA SCT015 FEW017CB BKN050 26/25 Q1004 NOSIG
  • 271030Z 25007KT 8000 SCT015 FEW017CB BKN050 26/25 Q1004 NOSIG RMK CB/NE/SE/SW
  • 271000Z 25004KT 220V310 8000 SCT015 FEW017CB BKN050 26/25 Q1003 NOSIG RMK CB/E/SW
  • 270930Z 30011G30KT 260V320 5000 SHRA SCT013 FEW015CB BKN050 24/24 Q1003 NOSIG RMK CB OVER RWY
  • 270900Z 24011KT 9999 SCT017 FEW020CB BKN050 29/26 Q1003 TEMPO FM0925 TL0945 28015G26KT 3000 SHRA RMK CB/E/ S

TAF TAF VVTS
Valid from the 27 at 12:00 until the 28 at 18:00 UTC


271100Z 2712/2818 26008KT 9999 SCT015 BKN050
TEMPO 2712/2718 5000 SHRA SCT013 FEW015CB BKN050
TEMPO 2803/2808 26016G30KT 3000 SHRA SCT013 SCT015CB BKN040
TEMPO 2808/2814 5000 RA
VVTS FIR / Asia



MET'MAP, your aeronautical weather chart ! - Copyright ORBIFLY December 2007 - Disclaimer

ORBIFLY MET'MAP TEAM :

Programming & Development : Alexandra Zaïnal
Original concept : Baudouin d'Aumeries
Technical & hardware support : Manuel Goepfert
Assistance : Marc-Olivier Méhu




SOURCES & CREDITS :

   NOAA       Earth
Advisory